createdAt,value
2019-03-01T00:01:00.833Z,32.00
2019-03-01T00:03:30.487Z,33.80
2019-03-01T00:06:13.931Z,33.07
2019-03-01T00:09:08.962Z,34.40
2019-03-01T00:12:01.435Z,34.47
2019-03-01T00:14:50.702Z,34.60
2019-03-01T00:17:46.290Z,33.80
2019-03-01T00:20:32.379Z,33.70
2019-03-01T00:23:24.841Z,35.03
2019-03-01T00:26:27.197Z,35.90
2019-03-01T00:29:07.252Z,37.20
2019-03-01T00:32:22.867Z,32.90
2019-03-01T00:35:02.902Z,35.93
2019-03-01T00:37:42.931Z,34.83
2019-03-01T00:40:52.806Z,34.70
2019-03-01T00:43:33.014Z,35.73
2019-03-01T00:46:02.625Z,35.27
2019-03-01T00:48:32.667Z,35.73
2019-03-01T00:51:04.526Z,36.87
2019-03-01T00:53:34.050Z,38.37
2019-03-01T00:56:03.871Z,37.67
2019-03-01T00:58:33.676Z,38.03
2019-03-01T01:01:03.484Z,36.60
2019-03-01T01:03:33.139Z,38.13
2019-03-01T01:06:02.822Z,37.70
2019-03-01T01:08:32.458Z,38.67
2019-03-01T01:11:02.060Z,37.47
2019-03-01T01:13:32.504Z,38.60
2019-03-01T01:16:02.212Z,39.40
2019-03-01T01:18:31.792Z,38.07
2019-03-01T01:21:01.487Z,36.97
2019-03-01T01:23:31.058Z,39.33
2019-03-01T01:26:00.592Z,38.70
2019-03-01T01:28:50.257Z,38.13
2019-03-01T01:31:19.889Z,39.13
2019-03-01T01:33:52.419Z,40.03
2019-03-01T01:36:22.051Z,41.27
2019-03-01T01:38:51.582Z,41.00
2019-03-01T01:41:21.190Z,40.23
2019-03-01T01:43:51.941Z,39.03
2019-03-01T01:46:21.452Z,37.67
2019-03-01T01:48:51.243Z,40.50
2019-03-01T01:51:20.900Z,39.87
2019-03-01T01:53:50.626Z,38.77
2019-03-01T01:56:20.614Z,38.63
2019-03-01T01:58:50.239Z,42.20
2019-03-01T02:01:20.409Z,39.83
2019-03-01T02:03:49.994Z,38.33
2019-03-01T02:06:19.962Z,39.40
2019-03-01T02:08:49.461Z,37.90
2019-03-01T02:11:19.105Z,40.90
2019-03-01T02:13:48.820Z,40.60
2019-03-01T02:16:18.559Z,43.97
2019-03-01T02:18:57.518Z,41.77
2019-03-01T02:21:23.341Z,40.47
2019-03-01T02:23:52.921Z,41.93
2019-03-01T02:26:22.440Z,39.80
2019-03-01T02:28:52.076Z,42.13
2019-03-01T02:31:24.393Z,41.60
2019-03-01T02:33:54.023Z,41.57
2019-03-01T02:36:24.082Z,41.10
2019-03-01T02:38:53.604Z,41.70
2019-03-01T02:41:23.300Z,41.30
2019-03-01T02:43:52.847Z,42.20
2019-03-01T02:46:22.363Z,42.83
2019-03-01T02:48:51.869Z,42.90
2019-03-01T02:51:22.997Z,40.57
2019-03-01T02:53:52.521Z,40.83
2019-03-01T02:56:22.469Z,40.90
2019-03-01T02:58:52.180Z,40.77
2019-03-01T03:01:21.697Z,42.00
2019-03-01T03:03:51.204Z,43.23
2019-03-01T03:06:25.292Z,44.43
2019-03-01T03:08:55.259Z,43.67
2019-03-01T03:11:24.801Z,42.57
2019-03-01T03:13:59.532Z,43.47
2019-03-01T03:16:29.107Z,45.00
2019-03-01T03:18:58.844Z,45.27
2019-03-01T03:21:28.408Z,45.93
2019-03-01T03:23:57.960Z,46.47
2019-03-01T03:26:27.569Z,47.20
2019-03-01T03:28:57.300Z,48.23
2019-03-01T03:31:26.905Z,48.70
2019-03-01T03:33:56.423Z,47.87
2019-03-01T03:36:26.271Z,49.87
2019-03-01T03:38:55.912Z,48.97
2019-03-01T03:41:25.572Z,50.77
2019-03-01T03:44:14.863Z,48.07
2019-03-01T03:46:44.505Z,51.70
2019-03-01T03:49:14.219Z,48.67
2019-03-01T03:51:45.334Z,50.40
2019-03-01T03:54:14.883Z,50.00
2019-03-01T03:56:44.691Z,52.70
2019-03-01T03:59:14.443Z,50.13
2019-03-01T04:01:44.142Z,47.20
2019-03-01T04:04:13.903Z,49.33
2019-03-01T04:06:43.948Z,48.87
2019-03-01T04:09:13.992Z,48.50
2019-03-01T04:11:43.676Z,45.17
2019-03-01T04:14:14.971Z,48.00
2019-03-01T04:16:44.491Z,48.70
2019-03-01T04:19:17.148Z,48.13
2019-03-01T04:21:46.869Z,48.93
2019-03-01T04:24:16.383Z,49.60
2019-03-01T04:26:45.993Z,47.33
2019-03-01T04:29:15.976Z,47.43
2019-03-01T04:31:45.584Z,51.33
2019-03-01T04:34:15.287Z,51.83
2019-03-01T04:36:44.932Z,48.00
2019-03-01T04:39:14.549Z,50.83
2019-03-01T04:41:44.333Z,49.70
2019-03-01T04:44:14.021Z,51.60
2019-03-01T04:46:45.637Z,48.27
2019-03-01T04:49:15.841Z,53.30
2019-03-01T04:51:45.761Z,52.20
2019-03-01T04:54:15.405Z,51.87
2019-03-01T04:56:45.129Z,48.33
2019-03-01T04:59:14.767Z,51.80
2019-03-01T05:01:44.440Z,51.87
2019-03-01T05:04:14.159Z,53.90
2019-03-01T05:06:43.925Z,54.10
2019-03-01T05:09:14.031Z,51.97
2019-03-01T05:11:43.581Z,55.20
2019-03-01T05:14:13.436Z,54.50
2019-03-01T05:16:43.037Z,55.43
2019-03-01T05:19:12.701Z,56.57
2019-03-01T05:21:42.284Z,53.67
2019-03-01T05:24:11.904Z,54.70
2019-03-01T05:26:41.511Z,54.20
2019-03-01T05:29:11.151Z,53.20
2019-03-01T05:31:41.612Z,53.37
2019-03-01T05:34:11.190Z,51.50
2019-03-01T05:36:41.369Z,52.73
2019-03-01T05:39:10.938Z,52.20
2019-03-01T05:41:40.627Z,54.20
2019-03-01T05:44:10.295Z,50.60
2019-03-01T05:46:39.814Z,51.17
2019-03-01T05:49:09.364Z,49.67
2019-03-01T05:51:38.963Z,47.10
2019-03-01T05:54:08.851Z,49.50
2019-03-01T05:56:38.475Z,46.67
2019-03-01T05:59:17.176Z,48.43
2019-03-01T06:01:57.169Z,45.03
2019-03-01T06:04:31.509Z,48.27
2019-03-01T06:07:24.655Z,51.90
2019-03-01T06:10:07.649Z,48.47
2019-03-01T06:13:03.137Z,46.97
2019-03-01T06:15:42.245Z,46.43
2019-03-01T06:18:31.634Z,50.53
2019-03-01T06:21:24.142Z,49.07
2019-03-01T06:24:27.092Z,48.40
2019-03-01T06:27:48.140Z,46.90
2019-03-01T06:30:51.680Z,48.17
2019-03-01T06:33:37.458Z,48.80
2019-03-01T06:36:32.574Z,46.83
2019-03-01T06:39:15.528Z,47.77
2019-03-01T06:42:09.412Z,50.27
2019-03-01T06:45:01.491Z,44.53
2019-03-01T06:47:47.531Z,48.07
2019-03-01T06:50:24.475Z,46.37
2019-03-01T06:52:54.158Z,45.97
2019-03-01T06:55:41.847Z,48.20
2019-03-01T06:58:16.365Z,45.37
2019-03-01T07:00:50.352Z,46.30
2019-03-01T07:03:20.299Z,44.77
2019-03-01T07:05:49.971Z,44.60
2019-03-01T07:08:21.302Z,45.00
2019-03-01T07:10:50.974Z,43.00
2019-03-01T07:13:22.144Z,44.30
2019-03-01T07:15:51.974Z,45.57
2019-03-01T07:18:21.642Z,47.20
2019-03-01T07:20:51.653Z,43.70
2019-03-01T07:23:23.352Z,43.03
2019-03-01T07:25:54.752Z,44.00
2019-03-01T07:28:24.294Z,42.60
2019-03-01T07:30:53.926Z,42.50
2019-03-01T07:33:23.753Z,44.10
2019-03-01T07:35:53.329Z,42.00
2019-03-01T07:38:22.905Z,40.33
2019-03-01T07:40:52.882Z,43.97
2019-03-01T07:43:22.707Z,36.53
2019-03-01T07:45:52.487Z,37.00
2019-03-01T07:48:22.021Z,35.90
2019-03-01T07:50:52.460Z,39.30
2019-03-01T07:53:22.928Z,36.60
2019-03-01T07:55:52.467Z,36.47
2019-03-01T07:58:25.599Z,34.87
2019-03-01T08:00:54.737Z,34.73
2019-03-01T08:03:24.566Z,34.80
2019-03-01T08:05:54.158Z,32.93
2019-03-01T08:08:23.709Z,32.63
2019-03-01T08:10:56.034Z,34.20
2019-03-01T08:13:26.698Z,31.57
2019-03-01T08:15:58.280Z,31.27
2019-03-01T08:18:27.881Z,32.50
2019-03-01T08:20:57.737Z,30.83
2019-03-01T08:23:27.639Z,30.27
2019-03-01T08:25:58.945Z,29.10
2019-03-01T08:28:28.749Z,34.10
2019-03-01T08:30:59.636Z,34.40
2019-03-01T08:33:29.174Z,35.57
2019-03-01T08:35:58.700Z,36.00
2019-03-01T08:38:28.889Z,34.27
2019-03-01T08:40:59.435Z,35.00
2019-03-01T08:43:28.944Z,30.57
2019-03-01T08:45:58.537Z,30.30
2019-03-01T08:48:30.593Z,30.37
2019-03-01T08:50:59.676Z,30.77
2019-03-01T08:53:29.515Z,31.17
2019-03-01T08:55:59.200Z,31.80
2019-03-01T08:58:28.947Z,32.40
2019-03-01T09:00:59.959Z,31.03
2019-03-01T09:03:42.676Z,29.57
2019-03-01T09:06:12.823Z,29.60
2019-03-01T09:08:43.031Z,31.80
2019-03-01T09:11:13.775Z,30.07
2019-03-01T09:13:46.827Z,30.87
2019-03-01T09:16:16.587Z,30.90
2019-03-01T09:18:46.688Z,32.70
2019-03-01T09:21:17.489Z,32.20
2019-03-01T09:23:47.917Z,33.07
2019-03-01T09:26:19.993Z,34.23
2019-03-01T09:28:50.633Z,33.93
2019-03-01T09:31:20.497Z,32.97
2019-03-01T09:33:50.182Z,32.87
2019-03-01T09:36:21.615Z,31.30
2019-03-01T09:38:51.751Z,30.00
2019-03-01T09:41:21.594Z,33.20
2019-03-01T09:43:51.975Z,35.77
2019-03-01T09:46:24.307Z,36.70
2019-03-01T09:48:52.926Z,35.57
2019-03-01T09:51:22.797Z,33.83
2019-03-01T09:53:53.037Z,34.10
2019-03-01T09:56:24.322Z,33.90
2019-03-01T09:58:55.948Z,29.87
2019-03-01T10:01:25.728Z,32.40
2019-03-01T10:03:56.255Z,30.80
2019-03-01T10:06:26.364Z,24.93
2019-03-01T10:08:56.026Z,26.20
2019-03-01T10:11:25.738Z,25.83
2019-03-01T10:13:55.660Z,19.20
2019-03-01T10:16:25.578Z,18.93
2019-03-01T10:18:55.170Z,20.23
2019-03-01T10:21:25.642Z,19.83
2019-03-01T10:23:55.401Z,19.03
2019-03-01T10:26:25.523Z,17.63
2019-03-01T10:28:55.319Z,17.37
2019-03-01T10:31:24.964Z,14.30
2019-03-01T10:33:54.500Z,16.90
2019-03-01T10:36:24.118Z,17.13
2019-03-01T10:38:53.681Z,16.87
2019-03-01T10:41:23.262Z,18.97
2019-03-01T10:43:53.234Z,19.77
2019-03-01T10:46:22.835Z,20.40
2019-03-01T10:48:52.676Z,20.73
2019-03-01T10:51:22.555Z,19.23
2019-03-01T10:53:52.109Z,21.20
2019-03-01T10:56:21.689Z,13.27
2019-03-01T10:58:51.296Z,12.93
2019-03-01T11:01:21.370Z,12.53
2019-03-01T11:03:51.234Z,12.03
2019-03-01T11:06:22.527Z,11.50
2019-03-01T11:08:52.208Z,11.90
2019-03-01T11:11:21.761Z,14.07
2019-03-01T11:13:51.527Z,13.90
2019-03-01T11:16:21.214Z,12.70
2019-03-01T11:18:51.065Z,12.63
2019-03-01T11:21:20.799Z,11.57
2019-03-01T11:23:50.786Z,12.47
2019-03-01T11:26:20.633Z,13.60
2019-03-01T11:28:50.876Z,14.33
2019-03-01T11:31:20.532Z,15.43
2019-03-01T11:33:50.409Z,14.60
2019-03-01T11:36:20.572Z,15.70
2019-03-01T11:38:50.535Z,16.17
2019-03-01T11:41:20.192Z,14.97
2019-03-01T11:43:49.900Z,12.37
2019-03-01T11:46:19.521Z,10.70
2019-03-01T11:48:49.279Z,11.30
2019-03-01T11:51:20.827Z,11.07
2019-03-01T11:53:50.386Z,11.13
2019-03-01T11:56:20.061Z,11.00
2019-03-01T11:58:49.836Z,11.80
2019-03-01T12:01:23.792Z,13.47
2019-03-01T12:03:53.875Z,17.40
2019-03-01T12:06:23.706Z,17.30
2019-03-01T12:08:53.305Z,18.23
2019-03-01T12:11:23.002Z,17.50
2019-03-01T12:13:52.724Z,16.73
2019-03-01T12:16:22.522Z,18.30
2019-03-01T12:18:52.204Z,16.60
2019-03-01T12:21:22.059Z,17.43
2019-03-01T12:23:51.755Z,17.37
2019-03-01T12:26:21.394Z,18.77
2019-03-01T12:28:51.131Z,17.90
2019-03-01T12:31:20.885Z,19.87
2019-03-01T12:33:50.465Z,18.27
2019-03-01T12:36:20.301Z,18.90
2019-03-01T12:38:50.083Z,19.20
2019-03-01T12:41:19.845Z,17.50
2019-03-01T12:43:49.644Z,18.23
2019-03-01T12:46:19.282Z,18.50
2019-03-01T12:48:48.884Z,17.67
2019-03-01T12:51:19.029Z,19.10
2019-03-01T12:53:48.630Z,18.43
2019-03-01T12:56:20.062Z,18.00
2019-03-01T12:58:49.955Z,16.47
2019-03-01T13:01:19.894Z,17.20
2019-03-01T13:03:50.121Z,15.20
2019-03-01T13:06:23.360Z,13.67
2019-03-01T13:08:53.078Z,13.60
2019-03-01T13:11:22.591Z,13.50
2019-03-01T13:13:52.381Z,14.30
2019-03-01T13:16:23.437Z,11.93
2019-03-01T13:18:53.675Z,12.40
2019-03-01T13:21:23.799Z,11.70
2019-03-01T13:23:53.501Z,10.47
2019-03-01T13:26:23.076Z,11.03
2019-03-01T13:28:52.696Z,11.10
2019-03-01T13:31:22.304Z,10.50
2019-03-01T13:33:52.365Z,8.70
2019-03-01T13:36:22.546Z,9.90
2019-03-01T13:38:53.086Z,8.87
2019-03-01T13:41:22.648Z,10.50
2019-03-01T13:43:55.678Z,9.67
2019-03-01T13:46:26.446Z,9.17
2019-03-01T13:48:56.709Z,8.50
2019-03-01T13:51:26.534Z,7.13
2019-03-01T13:53:56.153Z,7.90
2019-03-01T13:56:28.079Z,8.63
2019-03-01T13:58:59.507Z,10.60
2019-03-01T14:01:30.669Z,10.87
2019-03-01T14:04:03.220Z,10.83
2019-03-01T14:06:32.654Z,7.50
2019-03-01T14:09:02.352Z,8.07
2019-03-01T14:11:31.953Z,5.60
2019-03-01T14:14:03.752Z,7.03
2019-03-01T14:16:33.296Z,8.20
2019-03-01T14:19:02.925Z,7.50
2019-03-01T14:21:33.065Z,8.20
2019-03-01T14:24:03.670Z,8.00
2019-03-01T14:26:33.232Z,10.50
2019-03-01T14:29:03.036Z,7.80
2019-03-01T14:31:32.626Z,5.67
2019-03-01T14:34:02.151Z,5.03
2019-03-01T14:36:31.860Z,4.40
2019-03-01T14:39:03.485Z,5.07
2019-03-01T14:41:35.035Z,6.47
2019-03-01T14:44:04.065Z,6.80
2019-03-01T14:46:33.597Z,6.80
2019-03-01T14:49:03.303Z,6.37
2019-03-01T14:51:33.980Z,6.90
2019-03-01T14:54:07.009Z,7.50
2019-03-01T14:56:39.124Z,6.00
2019-03-01T14:59:25.199Z,8.20
2019-03-01T15:02:16.900Z,8.73
2019-03-01T15:04:46.663Z,9.17
2019-03-01T15:07:17.007Z,8.17
2019-03-01T15:09:46.671Z,7.40
2019-03-01T15:12:21.053Z,8.10
2019-03-01T15:14:51.576Z,6.43
2019-03-01T15:17:21.909Z,5.20
2019-03-01T15:20:16.779Z,5.10
2019-03-01T15:22:48.699Z,5.23
2019-03-01T15:25:18.321Z,5.00
2019-03-01T15:27:48.226Z,6.27
2019-03-01T15:30:19.020Z,7.50
2019-03-01T15:32:48.731Z,8.20
2019-03-01T15:35:18.490Z,8.90
2019-03-01T15:37:48.043Z,7.53
2019-03-01T15:40:17.720Z,7.93
2019-03-01T15:42:47.394Z,7.40
2019-03-01T15:45:17.612Z,8.23
2019-03-01T15:47:47.603Z,7.77
2019-03-01T15:50:17.308Z,9.27
2019-03-01T15:52:49.848Z,10.00
2019-03-01T15:55:18.280Z,9.60
2019-03-01T15:57:47.956Z,11.40
2019-03-01T16:00:19.509Z,9.50
2019-03-01T16:02:50.078Z,9.00
2019-03-01T16:05:21.257Z,10.10
2019-03-01T16:07:50.826Z,9.13
2019-03-01T16:10:21.445Z,8.90
2019-03-01T16:12:51.339Z,9.77
2019-03-01T16:15:20.877Z,9.30
2019-03-01T16:17:50.491Z,10.13
2019-03-01T16:20:21.400Z,10.17
2019-03-01T16:22:53.805Z,9.60
2019-03-01T16:25:22.411Z,9.13
2019-03-01T16:27:54.271Z,8.97
2019-03-01T16:30:23.790Z,9.60
2019-03-01T16:32:53.644Z,9.77
2019-03-01T16:35:23.622Z,8.30
2019-03-01T16:37:57.916Z,7.33
2019-03-01T16:40:26.601Z,6.70
2019-03-01T16:42:57.950Z,6.00
2019-03-01T16:45:28.050Z,5.80
2019-03-01T16:47:57.714Z,6.20
2019-03-01T16:50:29.088Z,5.73
2019-03-01T16:53:04.298Z,5.23
2019-03-01T16:55:32.422Z,6.80
2019-03-01T16:58:06.919Z,6.80
2019-03-01T17:00:34.102Z,7.47
2019-03-01T17:03:18.117Z,6.50
2019-03-01T17:05:48.430Z,8.80
2019-03-01T17:08:18.152Z,7.97
2019-03-01T17:10:48.171Z,8.23
2019-03-01T17:13:17.819Z,6.80
2019-03-01T17:15:48.493Z,6.50
2019-03-01T17:18:19.412Z,6.37
2019-03-01T17:20:50.436Z,4.93
2019-03-01T17:23:19.987Z,6.20
2019-03-01T17:25:49.651Z,6.10
2019-03-01T17:28:23.546Z,5.70
2019-03-01T17:30:51.784Z,5.57
2019-03-01T17:33:23.030Z,5.90
2019-03-01T17:35:52.642Z,6.40
2019-03-01T17:38:22.246Z,5.40
2019-03-01T17:40:51.814Z,5.73
2019-03-01T17:43:21.440Z,6.77
2019-03-01T17:45:54.425Z,6.03
2019-03-01T17:48:22.440Z,6.83
2019-03-01T17:50:51.987Z,7.30
2019-03-01T17:53:21.586Z,6.60
2019-03-01T17:56:10.866Z,5.37
2019-03-01T17:58:40.369Z,6.10
2019-03-01T18:01:10.111Z,6.37
2019-03-01T18:03:39.664Z,5.83
2019-03-01T18:06:09.239Z,6.13
2019-03-01T18:08:39.611Z,7.07
2019-03-01T18:11:10.425Z,7.57
2019-03-01T18:13:40.033Z,5.83
2019-03-01T18:16:09.578Z,6.23
2019-03-01T18:18:39.660Z,7.33
2019-03-01T18:21:10.093Z,7.07
2019-03-01T18:23:40.665Z,6.87
2019-03-01T18:26:10.384Z,7.70
2019-03-01T18:28:42.926Z,6.40
2019-03-01T18:31:12.512Z,7.93
2019-03-01T18:33:44.948Z,7.47
2019-03-01T18:36:14.591Z,7.03
2019-03-01T18:38:44.168Z,5.53
2019-03-01T18:41:13.822Z,5.43
2019-03-01T18:43:45.911Z,5.63
2019-03-01T18:46:19.185Z,5.93
2019-03-01T18:48:46.728Z,4.83
2019-03-01T18:51:16.888Z,5.30
2019-03-01T18:53:46.528Z,5.40
2019-03-01T18:56:16.104Z,5.23
2019-03-01T18:58:48.857Z,5.03
2019-03-01T19:01:17.079Z,4.50
2019-03-01T19:03:46.725Z,4.10
2019-03-01T19:06:17.204Z,3.60
2019-03-01T19:08:46.859Z,4.10
2019-03-01T19:11:16.924Z,4.13
2019-03-01T19:13:46.991Z,3.93
2019-03-01T19:16:16.599Z,3.90
2019-03-01T19:18:48.252Z,4.50
2019-03-01T19:21:18.212Z,4.90
2019-03-01T19:23:47.921Z,4.27
2019-03-01T19:26:18.550Z,3.53
2019-03-01T19:28:48.146Z,4.40
2019-03-01T19:31:17.856Z,3.77
2019-03-01T19:33:47.426Z,4.03
2019-03-01T19:36:17.015Z,4.53
2019-03-01T19:38:46.681Z,4.53
2019-03-01T19:41:16.319Z,4.40
2019-03-01T19:43:54.296Z,4.90
2019-03-01T19:46:17.210Z,4.20
2019-03-01T19:48:47.095Z,5.60
2019-03-01T19:51:16.826Z,3.67
2019-03-01T19:53:46.440Z,4.77
2019-03-01T19:56:18.989Z,4.33
2019-03-01T19:58:48.106Z,4.40
2019-03-01T20:01:18.709Z,4.70
2019-03-01T20:03:48.632Z,5.57
2019-03-01T20:06:18.232Z,5.30
2019-03-01T20:08:47.822Z,5.70
2019-03-01T20:11:26.830Z,5.70
2019-03-01T20:13:56.009Z,5.30
2019-03-01T20:16:25.732Z,6.03
2019-03-01T20:18:57.353Z,5.13
2019-03-01T20:21:26.905Z,5.03
2019-03-01T20:23:56.434Z,5.47
2019-03-01T20:26:26.810Z,5.00
2019-03-01T20:28:57.134Z,4.73
2019-03-01T20:31:26.749Z,4.80
2019-03-01T20:33:58.627Z,4.40
2019-03-01T20:36:27.824Z,5.20
2019-03-01T20:38:57.762Z,4.80
2019-03-01T20:41:28.291Z,4.70
2019-03-01T20:43:58.099Z,4.77
2019-03-01T20:46:27.817Z,5.93
2019-03-01T20:48:57.381Z,4.40
2019-03-01T20:51:27.975Z,4.67
2019-03-01T20:53:57.778Z,6.10
2019-03-01T20:56:27.549Z,4.60
2019-03-01T20:58:57.091Z,5.47
2019-03-01T21:01:27.780Z,4.03
2019-03-01T21:03:57.546Z,3.73
2019-03-01T21:06:27.282Z,5.53
2019-03-01T21:08:57.093Z,4.30
2019-03-01T21:11:26.738Z,4.77
2019-03-01T21:13:56.772Z,4.57
2019-03-01T21:16:26.368Z,4.43
2019-03-01T21:18:56.123Z,4.70
2019-03-01T21:21:28.825Z,5.50
2019-03-01T21:23:57.054Z,4.10
2019-03-01T21:26:27.043Z,3.60
2019-03-01T21:28:57.234Z,5.97
2019-03-01T21:31:26.887Z,5.70
2019-03-01T21:33:59.452Z,4.47
2019-03-01T21:36:28.092Z,5.00
2019-03-01T21:38:57.758Z,5.20
2019-03-01T21:41:27.613Z,4.93
2019-03-01T21:43:57.280Z,4.60
2019-03-01T21:46:30.558Z,4.10
2019-03-01T21:49:00.500Z,4.30
2019-03-01T21:51:34.814Z,4.37
2019-03-01T21:54:04.582Z,4.17
2019-03-01T21:56:34.746Z,4.63
2019-03-01T21:59:04.285Z,5.07
2019-03-01T22:01:33.869Z,3.50
2019-03-01T22:04:03.686Z,4.83
2019-03-01T22:06:33.808Z,5.17
2019-03-01T22:09:06.115Z,4.30
2019-03-01T22:11:36.242Z,4.43
2019-03-01T22:14:07.609Z,4.83
2019-03-01T22:16:39.379Z,5.53
2019-03-01T22:19:08.914Z,4.83
2019-03-01T22:21:38.933Z,4.53
2019-03-01T22:24:08.540Z,5.50
2019-03-01T22:26:38.694Z,4.83
2019-03-01T22:29:08.926Z,5.23
2019-03-01T22:31:41.825Z,3.93
2019-03-01T22:34:11.624Z,4.77
2019-03-01T22:36:41.814Z,3.63
2019-03-01T22:39:13.677Z,4.83
2019-03-01T22:41:45.316Z,4.00
2019-03-01T22:44:15.072Z,3.47
2019-03-01T22:46:44.942Z,4.07
2019-03-01T22:49:15.202Z,3.40
2019-03-01T22:51:45.049Z,3.53
2019-03-01T22:54:17.844Z,5.20
2019-03-01T22:56:48.503Z,3.90
2019-03-01T22:59:19.094Z,3.20
2019-03-01T23:01:49.114Z,3.80
2019-03-01T23:04:21.202Z,3.70
2019-03-01T23:06:51.596Z,3.90
2019-03-01T23:09:22.919Z,3.70
2019-03-01T23:11:54.310Z,4.17
2019-03-01T23:14:27.398Z,3.87
2019-03-01T23:16:55.736Z,4.07
2019-03-01T23:19:25.586Z,4.17
2019-03-01T23:21:55.507Z,4.20
2019-03-01T23:24:25.197Z,3.23
2019-03-01T23:26:56.868Z,3.93
2019-03-01T23:29:28.907Z,4.57
2019-03-01T23:31:58.888Z,4.10
2019-03-01T23:34:31.119Z,4.20
2019-03-01T23:37:03.539Z,3.30
2019-03-01T23:39:32.341Z,3.60
2019-03-01T23:42:03.399Z,4.30
2019-03-01T23:44:35.146Z,4.30
2019-03-01T23:47:05.154Z,4.43
2019-03-01T23:49:35.003Z,3.73
2019-03-01T23:52:06.515Z,4.63
2019-03-01T23:54:36.017Z,3.87
2019-03-01T23:57:06.988Z,4.10
2019-03-01T23:59:36.768Z,4.40
